Country
Station

 

Weather  for  Lulea/Kallax  -  Sweden    Sweden

  
15 °C (59 °F)
    
 
 

Current METAR for Lulea/Kallax is :

ESPA 201950Z VRB01KT CAVOK 15/12 Q1008

 

This is a report for Lulea/Kallax - Sweden.
 
The report was made 34 minutes ago, at 19:50 UTC .
The wind was blowing at a speed of 0.5 meters per second (1.2 miles per hour) from variable directions.
 
The temperature was 15 °C (59 °F), with a dew-point at 12 °C (54 °F).
The atmospheric pressure was 1008 hPa (29.77 inHg).
The relative humidity was 82.2%.
 
There were no clouds below 1500 meter (5000 feet) and no cumulonimbus clouds.
 
The overall visibility was greater than 10 kilometers (6.2 miles).
 

 
 
 
 

Country :   A   B   C   D   E   F   G   H   I   J   K   L   M   N   O   P   Q   R   S   T   U   V   W   Y   Z

 

Site Info  |  Disclaimer  |  Credits  |  Privacy
Contact us  |  Add to favorites
© 2013-2019 METARs - All rights reserved